createdAt,value
2022-08-23T00:01:39.030Z,100336.69
2022-08-23T00:03:42.064Z,100335.84
2022-08-23T00:05:44.971Z,100336.25
2022-08-23T00:07:46.544Z,100340.16
2022-08-23T00:09:48.207Z,100338.19
2022-08-23T00:11:52.852Z,100335.84
2022-08-23T00:13:54.767Z,100336.63
2022-08-23T00:15:56.387Z,100332.28
2022-08-23T00:17:57.966Z,100334.69
2022-08-23T00:19:59.515Z,100336.66
2022-08-23T00:22:02.809Z,100333.88
2022-08-23T00:24:05.886Z,100331.50
2022-08-23T00:26:07.660Z,100327.53
2022-08-23T00:28:14.718Z,100333.06
2022-08-23T00:30:17.368Z,100334.25
2022-08-23T00:32:22.577Z,100328.75
2022-08-23T00:34:24.251Z,100331.09
2022-08-23T00:36:25.800Z,100326.75
2022-08-23T00:38:34.185Z,100324.81
2022-08-23T00:40:36.795Z,100322.81
2022-08-23T00:42:43.909Z,100320.44
2022-08-23T00:44:45.570Z,100320.44
2022-08-23T00:46:51.468Z,100325.56
2022-08-23T00:48:54.265Z,100316.47
2022-08-23T00:51:02.904Z,100323.16
2022-08-23T00:53:09.932Z,100321.97
2022-08-23T00:55:13.052Z,100321.16
2022-08-23T00:57:16.835Z,100324.75
2022-08-23T00:59:18.737Z,100329.84
2022-08-23T01:01:20.352Z,100329.44
2022-08-23T01:03:24.461Z,100332.63
2022-08-23T01:05:33.003Z,100331.03
2022-08-23T01:07:44.943Z,100334.19
2022-08-23T01:09:48.545Z,100334.97
2022-08-23T01:11:58.258Z,100333.00
2022-08-23T01:14:06.175Z,100337.31
2022-08-23T01:16:13.603Z,100336.13
2022-08-23T01:18:17.819Z,100338.88
2022-08-23T01:20:26.921Z,100336.47
2022-08-23T01:22:36.312Z,100337.28
2022-08-23T01:24:54.120Z,100338.47
2022-08-23T01:27:01.927Z,100338.47
2022-08-23T01:29:06.396Z,100340.06
2022-08-23T01:31:08.958Z,100341.25
2022-08-23T01:33:10.543Z,100334.53
2022-08-23T01:35:12.814Z,100340.41
2022-08-23T01:37:14.848Z,100339.63
2022-08-23T01:39:16.408Z,100344.75
2022-08-23T01:41:19.275Z,100343.16
2022-08-23T01:43:22.109Z,100348.69
2022-08-23T01:45:23.743Z,100344.75
2022-08-23T01:47:25.459Z,100340.78
2022-08-23T01:49:27.112Z,100337.63
2022-08-23T01:51:28.664Z,100334.03
2022-08-23T01:53:30.243Z,100331.66
2022-08-23T01:55:31.956Z,100334.44
2022-08-23T01:57:35.245Z,100333.25
2022-08-23T01:59:37.198Z,100336.78
2022-08-23T02:01:38.951Z,100341.09
2022-08-23T02:03:40.643Z,100339.94
2022-08-23T02:05:42.907Z,100345.44
2022-08-23T02:07:44.768Z,100335.50
2022-08-23T02:09:46.461Z,100347.31
2022-08-23T02:11:49.003Z,100340.59
2022-08-23T02:13:53.983Z,100345.31
2022-08-23T02:15:58.496Z,100345.31
2022-08-23T02:18:00.627Z,100346.50
2022-08-23T02:20:03.363Z,100345.66
2022-08-23T02:22:06.857Z,100351.22
2022-08-23T02:24:11.184Z,100353.19
2022-08-23T02:26:13.469Z,100361.84
2022-08-23T02:28:15.090Z,100361.03
2022-08-23T02:30:18.157Z,100375.22
2022-08-23T02:32:19.978Z,100373.31
2022-08-23T02:34:21.610Z,100377.19
2022-08-23T02:36:23.255Z,100379.94
2022-08-23T02:38:24.888Z,100374.78
2022-08-23T02:40:26.498Z,100370.75
2022-08-23T02:42:28.196Z,100378.19
2022-08-23T02:44:29.904Z,100378.53
2022-08-23T02:46:33.648Z,100378.13
2022-08-23T02:48:35.988Z,100377.38
2022-08-23T02:50:39.250Z,100377.38
2022-08-23T02:52:40.800Z,100373.78
2022-08-23T02:54:42.393Z,100376.47
2022-08-23T02:56:44.009Z,100383.84
2022-08-23T02:58:45.791Z,100379.50
2022-08-23T03:00:50.762Z,100376.72
2022-08-23T03:02:53.735Z,100380.75
2022-08-23T03:04:55.535Z,100378.41
2022-08-23T03:06:57.092Z,100376.41
2022-08-23T03:08:58.920Z,100371.59
2022-08-23T03:11:00.452Z,100379.47
2022-08-23T03:13:09.603Z,100375.50
2022-08-23T03:15:11.513Z,100386.50
2022-08-23T03:17:13.158Z,100385.28
2022-08-23T03:19:17.353Z,100393.16
2022-08-23T03:21:19.926Z,100386.13
2022-08-23T03:23:22.053Z,100390.50
2022-08-23T03:25:24.843Z,100393.63
2022-08-23T03:27:26.487Z,100394.34
2022-08-23T03:29:28.057Z,100390.75
2022-08-23T03:31:31.274Z,100392.66
2022-08-23T03:33:33.009Z,100391.41
2022-08-23T03:35:35.971Z,100393.38
2022-08-23T03:37:37.540Z,100398.47
2022-08-23T03:39:43.020Z,100398.03
2022-08-23T03:41:44.609Z,100399.56
2022-08-23T03:43:46.202Z,100400.31
2022-08-23T03:45:48.397Z,100405.78
2022-08-23T03:47:50.061Z,100403.75
2022-08-23T03:49:51.691Z,100397.91
2022-08-23T03:51:54.710Z,100399.81
2022-08-23T03:53:56.333Z,100396.50
2022-08-23T03:55:57.852Z,100409.94
2022-08-23T03:57:59.722Z,100405.16
2022-08-23T04:00:01.529Z,100409.41
2022-08-23T04:02:03.780Z,100408.19
2022-08-23T04:04:05.888Z,100412.88
2022-08-23T04:06:07.508Z,100414.53
2022-08-23T04:08:11.027Z,100420.00
2022-08-23T04:10:12.589Z,100421.09
2022-08-23T04:12:17.479Z,100419.09
2022-08-23T04:14:19.526Z,100419.09
2022-08-23T04:16:21.100Z,100427.72
2022-08-23T04:18:22.905Z,100425.28
2022-08-23T04:20:24.458Z,100430.78
2022-08-23T04:22:26.049Z,100426.16
2022-08-23T04:24:29.770Z,100426.94
2022-08-23T04:26:31.758Z,100432.03
2022-08-23T04:28:34.184Z,100435.47
2022-08-23T04:30:35.784Z,100435.78
2022-08-23T04:32:37.341Z,100440.94
2022-08-23T04:34:40.277Z,100439.75
2022-08-23T04:36:44.859Z,100439.28
2022-08-23T04:38:53.496Z,100437.28
2022-08-23T04:40:57.113Z,100447.13
2022-08-23T04:42:58.657Z,100449.44
2022-08-23T04:45:00.241Z,100445.41
2022-08-23T04:47:02.022Z,100447.44
2022-08-23T04:49:03.857Z,100447.34
2022-08-23T04:51:05.592Z,100452.84
2022-08-23T04:53:07.291Z,100450.50
2022-08-23T04:55:09.206Z,100457.19
2022-08-23T04:57:12.217Z,100465.09
2022-08-23T04:59:13.775Z,100459.56
2022-08-23T05:01:15.948Z,100460.28
2022-08-23T05:03:17.579Z,100460.66
2022-08-23T05:05:19.687Z,100464.88
2022-08-23T05:07:21.278Z,100471.25
2022-08-23T05:09:41.623Z,100468.81
2022-08-23T05:11:43.189Z,100483.31
2022-08-23T05:13:46.431Z,100477.41
2022-08-23T05:15:50.498Z,100479.81
2022-08-23T05:17:52.453Z,100485.63
2022-08-23T05:19:54.075Z,100492.28
2022-08-23T05:21:57.223Z,100485.25
2022-08-23T05:24:00.346Z,100484.47
2022-08-23T05:26:05.596Z,100495.91
2022-08-23T05:28:07.186Z,100495.13
2022-08-23T05:30:15.180Z,100496.00
2022-08-23T05:32:17.150Z,100503.81
2022-08-23T05:34:22.501Z,100504.56
2022-08-23T05:36:24.733Z,100508.06
2022-08-23T05:38:26.664Z,100507.25
2022-08-23T05:40:28.644Z,100510.44
2022-08-23T05:42:30.208Z,100503.38
2022-08-23T05:44:36.221Z,100510.44
2022-08-23T05:46:40.418Z,100503.34
2022-08-23T05:48:47.331Z,100508.97
2022-08-23T05:50:48.897Z,100506.38
2022-08-23T05:52:51.215Z,100508.06
2022-08-23T05:54:53.197Z,100515.25
2022-08-23T05:56:54.822Z,100514.91
2022-08-23T05:59:00.005Z,100517.41
2022-08-23T06:01:01.820Z,100514.28
2022-08-23T06:03:04.767Z,100523.41
2022-08-23T06:05:07.467Z,100529.38
2022-08-23T06:07:09.159Z,100528.72
2022-08-23T06:09:12.803Z,100527.97
2022-08-23T06:11:16.679Z,100530.03
2022-08-23T06:13:18.300Z,100526.56
2022-08-23T06:15:19.901Z,100525.16
2022-08-23T06:17:21.485Z,100533.19
2022-08-23T06:19:24.936Z,100534.84
2022-08-23T06:21:27.008Z,100534.16
2022-08-23T06:23:28.755Z,100541.31
2022-08-23T06:25:30.415Z,100544.66
2022-08-23T06:27:33.083Z,100548.31
2022-08-23T06:29:34.695Z,100539.69
2022-08-23T06:31:39.604Z,100553.50
2022-08-23T06:33:41.993Z,100546.47
2022-08-23T06:35:45.057Z,100544.91
2022-08-23T06:37:46.670Z,100542.59
2022-08-23T06:39:48.319Z,100546.19
2022-08-23T06:41:50.469Z,100545.44
2022-08-23T06:43:52.237Z,100548.72
2022-08-23T06:45:55.099Z,100547.16
2022-08-23T06:48:00.203Z,100549.16
2022-08-23T06:50:02.008Z,100547.19
2022-08-23T06:52:05.636Z,100548.06
2022-08-23T06:54:10.341Z,100548.50
2022-08-23T06:56:13.693Z,100551.69
2022-08-23T06:58:15.314Z,100545.41
2022-08-23T07:00:21.955Z,100552.56
2022-08-23T07:02:24.176Z,100547.47
2022-08-23T07:04:28.980Z,100550.25
2022-08-23T07:06:30.700Z,100553.47
2022-08-23T07:08:33.845Z,100555.47
2022-08-23T07:10:35.488Z,100559.03
2022-08-23T07:12:39.228Z,100555.91
2022-08-23T07:14:41.348Z,100559.13
2022-08-23T07:16:45.542Z,100558.75
2022-08-23T07:18:47.766Z,100563.22
2022-08-23T07:20:49.406Z,100565.59
2022-08-23T07:22:51.026Z,100562.50
2022-08-23T07:24:54.018Z,100558.97
2022-08-23T07:26:55.884Z,100556.63
2022-08-23T07:28:57.766Z,100560.16
2022-08-23T07:31:11.349Z,100558.97
2022-08-23T07:33:16.398Z,100557.78
2022-08-23T07:35:18.272Z,100563.34
2022-08-23T07:37:21.815Z,100555.47
2022-08-23T07:39:23.780Z,100556.31
2022-08-23T07:41:31.003Z,100567.38
2022-08-23T07:43:35.022Z,100559.09
2022-08-23T07:45:40.069Z,100563.88
2022-08-23T07:47:48.232Z,100556.06
2022-08-23T07:49:51.808Z,100562.38
2022-08-23T07:51:53.501Z,100563.56
2022-08-23T07:53:55.188Z,100560.03
2022-08-23T07:55:57.248Z,100562.03
2022-08-23T07:58:03.140Z,100565.97
2022-08-23T08:00:06.128Z,100560.44
2022-08-23T08:02:07.781Z,100568.31
2022-08-23T08:04:09.628Z,100572.28
2022-08-23T08:06:15.643Z,100567.50
2022-08-23T08:08:17.309Z,100572.25
2022-08-23T08:10:19.463Z,100577.03
2022-08-23T08:12:21.066Z,100576.94
2022-08-23T08:14:23.942Z,100575.31
2022-08-23T08:16:27.462Z,100568.97
2022-08-23T08:18:29.029Z,100578.50
2022-08-23T08:20:30.653Z,100581.22
2022-08-23T08:22:32.271Z,100580.81
2022-08-23T08:24:33.913Z,100583.56
2022-08-23T08:26:35.693Z,100587.53
2022-08-23T08:28:38.303Z,100583.22
2022-08-23T08:30:41.345Z,100587.56
2022-08-23T08:32:47.341Z,100589.50
2022-08-23T08:34:49.226Z,100589.56
2022-08-23T08:36:52.764Z,100589.16
2022-08-23T08:39:01.056Z,100595.88
2022-08-23T08:41:12.921Z,100595.09
2022-08-23T08:43:27.367Z,100592.34
2022-08-23T08:45:37.605Z,100591.63
2022-08-23T08:47:48.723Z,100591.22
2022-08-23T08:49:58.248Z,100587.28
2022-08-23T08:52:15.043Z,100594.41
2022-08-23T08:54:21.544Z,100591.63
2022-08-23T08:56:32.296Z,100599.97
2022-08-23T08:58:43.219Z,100595.63
2022-08-23T09:00:46.330Z,100588.56
2022-08-23T09:02:50.423Z,100590.16
2022-08-23T09:04:52.287Z,100582.25
2022-08-23T09:07:09.206Z,100588.19
2022-08-23T09:09:22.181Z,100591.75
2022-08-23T09:11:36.526Z,100588.97
2022-08-23T09:14:12.922Z,100587.41
2022-08-23T09:16:28.830Z,100588.97
2022-08-23T09:18:35.554Z,100589.38
2022-08-23T09:20:38.326Z,100589.78
2022-08-23T09:22:42.986Z,100583.50
2022-08-23T09:24:44.651Z,100592.63
2022-08-23T09:26:46.313Z,100589.44
2022-08-23T09:28:50.914Z,100577.97
2022-08-23T09:30:55.142Z,100580.75
2022-08-23T09:33:15.499Z,100580.75
2022-08-23T09:35:21.760Z,100588.25
2022-08-23T09:37:24.726Z,100589.03
2022-08-23T09:39:31.394Z,100589.06
2022-08-23T09:41:35.968Z,100588.28
2022-08-23T09:43:44.732Z,100584.72
2022-08-23T09:45:59.715Z,100598.16
2022-08-23T09:48:01.534Z,100592.63
2022-08-23T09:50:23.557Z,100588.66
2022-08-23T09:52:33.631Z,100579.56
2022-08-23T09:54:37.067Z,100581.94
2022-08-23T09:56:41.414Z,100583.13
2022-08-23T09:58:44.653Z,100585.91
2022-08-23T10:01:01.965Z,100577.56
2022-08-23T10:03:22.184Z,100579.56
2022-08-23T10:05:36.982Z,100573.63
2022-08-23T10:07:42.573Z,100570.44
2022-08-23T10:09:44.598Z,100572.03
2022-08-23T10:11:46.220Z,100567.69
2022-08-23T10:13:47.923Z,100566.47
2022-08-23T10:16:00.214Z,100568.88
2022-08-23T10:18:07.831Z,100566.88
2022-08-23T10:20:22.290Z,100566.84
2022-08-23T10:22:27.418Z,100554.97
2022-08-23T10:24:44.747Z,100558.13
2022-08-23T10:27:07.740Z,100554.97
2022-08-23T10:29:16.139Z,100566.81
2022-08-23T10:31:31.424Z,100558.50
2022-08-23T10:33:40.397Z,100553.34
2022-08-23T10:35:49.337Z,100550.16
2022-08-23T10:38:03.833Z,100550.97
2022-08-23T10:40:15.215Z,100544.59
2022-08-23T10:42:24.743Z,100545.00
2022-08-23T10:44:34.120Z,100544.19
2022-08-23T10:46:42.601Z,100550.09
2022-08-23T10:48:50.407Z,100544.94
2022-08-23T10:50:55.879Z,100542.13
2022-08-23T10:53:05.261Z,100538.19
2022-08-23T10:55:14.806Z,100544.84
2022-08-23T10:57:18.835Z,100536.50
2022-08-23T10:59:25.288Z,100546.78
2022-08-23T11:01:37.576Z,100538.81
2022-08-23T11:03:43.973Z,100530.38
2022-08-23T11:06:35.386Z,100539.28
2022-08-23T11:08:40.954Z,100535.25
2022-08-23T11:10:53.789Z,100532.69
2022-08-23T11:13:01.427Z,100524.50
2022-08-23T11:15:25.331Z,100525.69
2022-08-23T11:17:29.732Z,100519.78
2022-08-23T11:19:49.484Z,100514.47
2022-08-23T11:21:51.100Z,100519.97
2022-08-23T11:24:15.684Z,100512.22
2022-08-23T11:27:05.953Z,100510.00
2022-08-23T11:29:29.483Z,100511.69
2022-08-23T11:31:34.716Z,100514.63
2022-08-23T11:33:44.631Z,100508.66
2022-08-23T11:35:49.821Z,100508.81
2022-08-23T11:37:55.707Z,100505.72
2022-08-23T11:40:11.100Z,100507.97
2022-08-23T11:42:19.228Z,100506.28
2022-08-23T11:44:33.533Z,100501.13
2022-08-23T11:46:57.410Z,100508.34
2022-08-23T11:49:16.298Z,100510.28
2022-08-23T11:51:27.240Z,100508.28
2022-08-23T11:53:57.780Z,100503.91
2022-08-23T11:56:28.471Z,100503.69
2022-08-23T11:58:45.047Z,100507.84
2022-08-23T12:01:07.793Z,100504.38
2022-08-23T12:03:23.106Z,100498.94
2022-08-23T12:05:41.283Z,100499.50
2022-08-23T12:07:45.950Z,100496.38
2022-08-23T12:09:54.978Z,100494.91
2022-08-23T12:12:24.796Z,100484.44
2022-08-23T12:14:36.100Z,100487.53
2022-08-23T12:16:44.141Z,100487.06
2022-08-23T12:18:54.478Z,100486.56
2022-08-23T12:20:58.866Z,100484.72
2022-08-23T12:23:07.248Z,100484.97
2022-08-23T12:25:08.931Z,100484.38
2022-08-23T12:27:28.396Z,100487.06
2022-08-23T12:29:48.771Z,100491.81
2022-08-23T12:32:00.406Z,100478.72
2022-08-23T12:34:15.550Z,100478.34
2022-08-23T12:36:24.379Z,100466.03
2022-08-23T12:38:48.970Z,100472.34
2022-08-23T12:40:54.443Z,100468.81
2022-08-23T12:43:04.360Z,100465.66
2022-08-23T12:45:11.615Z,100472.50
2022-08-23T12:47:18.495Z,100469.81
2022-08-23T12:49:29.425Z,100467.06
2022-08-23T12:51:31.266Z,100463.34
2022-08-23T12:53:36.066Z,100464.09
2022-08-23T12:55:41.004Z,100461.09
2022-08-23T12:57:51.843Z,100458.47
2022-08-23T13:00:17.199Z,100461.16
2022-08-23T13:02:26.144Z,100464.09
2022-08-23T13:04:28.243Z,100459.59
2022-08-23T13:06:34.629Z,100462.22
2022-08-23T13:08:41.087Z,100458.38
2022-08-23T13:10:44.495Z,100454.19
2022-08-23T13:12:46.378Z,100455.97
2022-08-23T13:14:50.306Z,100461.94
2022-08-23T13:16:54.915Z,100461.34
2022-08-23T13:19:14.553Z,100456.41
2022-08-23T13:21:28.196Z,100450.34
2022-08-23T13:23:29.821Z,100454.34
2022-08-23T13:25:33.926Z,100456.09
2022-08-23T13:27:49.615Z,100451.22
2022-08-23T13:29:57.896Z,100449.19
2022-08-23T13:32:03.192Z,100453.47
2022-08-23T13:34:07.220Z,100442.41
2022-08-23T13:36:14.666Z,100441.78
2022-08-23T13:38:22.266Z,100446.69
2022-08-23T13:40:27.126Z,100438.72
2022-08-23T13:42:34.499Z,100442.78
2022-08-23T13:44:36.284Z,100434.34
2022-08-23T13:46:45.495Z,100438.66
2022-08-23T13:48:50.579Z,100428.34
2022-08-23T13:50:54.216Z,100422.19
2022-08-23T13:53:15.248Z,100425.50
2022-08-23T13:55:17.248Z,100420.63
2022-08-23T13:57:19.090Z,100423.00
2022-08-23T13:59:31.159Z,100424.13
2022-08-23T14:01:33.713Z,100420.50
2022-08-23T14:03:35.346Z,100430.53
2022-08-23T14:05:37.022Z,100426.38
2022-08-23T14:07:39.979Z,100423.59
2022-08-23T14:09:42.334Z,100422.06
2022-08-23T14:11:44.915Z,100429.75
2022-08-23T14:13:48.475Z,100427.09
2022-08-23T14:15:58.820Z,100432.19
2022-08-23T14:18:12.584Z,100433.63
2022-08-23T14:22:37.452Z,100424.56
2022-08-23T14:24:40.869Z,100420.94
2022-08-23T14:26:51.714Z,100421.44
2022-08-23T14:28:57.001Z,100423.44
2022-08-23T14:30:58.780Z,100430.97
2022-08-23T14:33:00.783Z,100424.41
2022-08-23T14:35:02.535Z,100424.97
2022-08-23T14:39:26.214Z,100430.13
2022-08-23T14:41:30.616Z,100425.63
2022-08-23T14:43:32.441Z,100430.38
2022-08-23T14:45:34.075Z,100427.97
2022-08-23T14:47:35.937Z,100422.69
2022-08-23T14:49:38.608Z,100427.06
2022-08-23T14:51:43.394Z,100420.72
2022-08-23T14:53:46.503Z,100425.13
2022-08-23T14:55:48.358Z,100422.25
2022-08-23T14:57:51.488Z,100421.78
2022-08-23T14:59:53.133Z,100419.81
2022-08-23T15:01:56.336Z,100414.63
2022-08-23T15:03:58.017Z,100420.06
2022-08-23T15:05:59.708Z,100421.00
2022-08-23T15:08:01.417Z,100420.59
2022-08-23T15:10:04.574Z,100422.13
2022-08-23T15:12:58.367Z,100422.59
2022-08-23T15:14:30.227Z,100411.88
2022-08-23T15:16:32.174Z,100413.09
2022-08-23T15:18:34.976Z,100412.63
2022-08-23T15:20:38.418Z,100410.81
2022-08-23T15:22:44.312Z,100408.19
2022-08-23T15:24:46.300Z,100416.66
2022-08-23T15:26:48.096Z,100404.34
2022-08-23T15:28:50.103Z,100405.59
2022-08-23T15:30:53.267Z,100408.38
2022-08-23T15:32:56.890Z,100402.28
2022-08-23T15:34:58.575Z,100402.28
2022-08-23T15:37:01.166Z,100399.84
2022-08-23T15:39:02.978Z,100398.28
2022-08-23T15:41:05.910Z,100407.09
2022-08-23T15:43:07.791Z,100406.72
2022-08-23T15:45:10.449Z,100407.16
2022-08-23T15:47:19.950Z,100404.97
2022-08-23T15:49:23.669Z,100402.25
2022-08-23T15:51:25.576Z,100395.97
2022-08-23T15:53:27.285Z,100404.41
2022-08-23T15:55:31.823Z,100394.84
2022-08-23T15:57:41.000Z,100402.13
2022-08-23T15:59:42.745Z,100391.84
2022-08-23T16:01:44.586Z,100402.22
2022-08-23T16:03:47.848Z,100399.41
2022-08-23T16:05:52.239Z,100398.81
2022-08-23T16:07:56.731Z,100397.25
2022-08-23T16:10:01.205Z,100397.34
2022-08-23T16:12:04.823Z,100398.63
2022-08-23T16:14:06.446Z,100401.06
2022-08-23T16:16:14.575Z,100403.06
2022-08-23T16:18:16.606Z,100403.84
2022-08-23T16:20:19.663Z,100391.56
2022-08-23T16:22:21.362Z,100397.91
2022-08-23T16:24:24.694Z,100396.31
2022-08-23T16:26:34.685Z,100396.69
2022-08-23T16:28:37.235Z,100391.47
2022-08-23T16:30:39.125Z,100397.06
2022-08-23T16:32:41.075Z,100392.69
2022-08-23T16:34:42.770Z,100390.72
2022-08-23T16:36:51.677Z,100390.84
2022-08-23T16:38:54.786Z,100391.44
2022-08-23T16:40:56.781Z,100395.06
2022-08-23T16:42:58.748Z,100394.69
2022-08-23T16:45:00.564Z,100393.19
2022-08-23T16:47:03.466Z,100392.84
2022-08-23T16:49:05.127Z,100401.38
2022-08-23T16:51:06.766Z,100404.53
2022-08-23T16:53:09.998Z,100398.97
2022-08-23T16:55:12.549Z,100402.59
2022-08-23T16:57:14.147Z,100403.06
2022-08-23T16:59:15.787Z,100409.47
2022-08-23T17:01:18.781Z,100405.13
2022-08-23T17:03:20.631Z,100405.56
2022-08-23T17:05:22.324Z,100413.47
2022-08-23T17:07:24.254Z,100409.56
2022-08-23T17:09:28.709Z,100406.84
2022-08-23T17:11:32.989Z,100411.19
2022-08-23T17:13:34.644Z,100410.00
2022-08-23T17:15:36.904Z,100403.63
2022-08-23T17:17:38.575Z,100408.41
2022-08-23T17:19:41.904Z,100406.03
2022-08-23T17:21:43.627Z,100404.41
2022-08-23T17:23:45.332Z,100406.41
2022-08-23T17:25:48.451Z,100408.41
2022-08-23T17:27:53.276Z,100413.53
2022-08-23T17:29:54.892Z,100403.69
2022-08-23T17:31:56.539Z,100417.69
2022-08-23T17:33:58.289Z,100416.16
2022-08-23T17:36:00.035Z,100414.09
2022-08-23T17:38:02.563Z,100412.88
2022-08-23T17:40:10.904Z,100418.09
2022-08-23T17:42:16.452Z,100420.94
2022-08-23T17:44:20.489Z,100423.78
2022-08-23T17:46:22.259Z,100422.56
2022-08-23T17:48:23.961Z,100427.78
2022-08-23T17:50:25.849Z,100429.41
2022-08-23T17:52:27.692Z,100435.03
2022-08-23T17:54:29.653Z,100432.31
2022-08-23T17:56:32.153Z,100437.09
2022-08-23T17:58:35.140Z,100436.72
2022-08-23T18:00:37.982Z,100441.94
2022-08-23T18:02:39.815Z,100449.06
2022-08-23T18:04:41.558Z,100442.34
2022-08-23T18:06:43.269Z,100448.34
2022-08-23T18:08:45.537Z,100448.34
2022-08-23T18:10:47.226Z,100445.19
2022-08-23T18:12:49.087Z,100448.00
2022-08-23T18:14:52.015Z,100447.22
2022-08-23T18:16:54.088Z,100448.06
2022-08-23T18:18:56.629Z,100458.03
2022-08-23T18:20:58.445Z,100452.13
2022-08-23T18:23:00.100Z,100451.00
2022-08-23T18:25:01.709Z,100461.34
2022-08-23T18:27:03.452Z,100458.59
2022-08-23T18:29:07.207Z,100463.06
2022-08-23T18:31:15.540Z,100471.84
2022-08-23T18:33:18.966Z,100466.69
2022-08-23T18:35:21.330Z,100467.53
2022-08-23T18:37:22.931Z,100476.41
2022-08-23T18:39:31.909Z,100479.94
2022-08-23T18:41:34.544Z,100481.97
2022-08-23T18:43:37.317Z,100482.34
2022-08-23T18:45:39.551Z,100489.97
2022-08-23T18:47:42.757Z,100492.38
2022-08-23T18:49:44.414Z,100490.06
2022-08-23T18:51:46.133Z,100497.22
2022-08-23T18:53:47.883Z,100499.63
2022-08-23T18:55:49.944Z,100500.47
2022-08-23T18:57:51.552Z,100502.13
2022-08-23T18:59:53.159Z,100506.13
2022-08-23T19:01:55.106Z,100507.81
2022-08-23T19:04:00.753Z,100514.09
2022-08-23T19:06:02.531Z,100513.38
2022-08-23T19:08:05.104Z,100513.75
2022-08-23T19:10:07.904Z,100515.78
2022-08-23T19:12:09.625Z,100513.81
2022-08-23T19:14:11.475Z,100524.16
2022-08-23T19:16:14.572Z,100520.63
2022-08-23T19:18:16.197Z,100521.44
2022-08-23T19:20:20.258Z,100527.03
2022-08-23T19:22:21.842Z,100518.75
2022-08-23T19:24:23.628Z,100526.69
2022-08-23T19:26:27.877Z,100534.34
2022-08-23T19:28:29.545Z,100537.50
2022-08-23T19:30:31.409Z,100539.47
2022-08-23T19:32:35.006Z,100534.34
2022-08-23T19:34:36.655Z,100537.53
2022-08-23T19:36:49.282Z,100534.78
2022-08-23T19:38:58.265Z,100543.97
2022-08-23T19:41:02.140Z,100539.97
2022-08-23T19:43:04.103Z,100543.53
2022-08-23T19:45:08.334Z,100545.53
2022-08-23T19:47:19.375Z,100533.69
2022-08-23T19:49:21.626Z,100549.59
2022-08-23T19:51:23.278Z,100544.06
2022-08-23T19:53:29.061Z,100540.50
2022-08-23T19:55:30.706Z,100540.13
2022-08-23T19:57:33.154Z,100542.91
2022-08-23T19:59:37.685Z,100543.34
2022-08-23T20:01:40.171Z,100548.88
2022-08-23T20:03:41.907Z,100554.06
2022-08-23T20:05:43.508Z,100552.53
2022-08-23T20:07:46.013Z,100553.34
2022-08-23T20:09:49.159Z,100549.78
2022-08-23T20:11:52.079Z,100550.63
2022-08-23T20:13:54.005Z,100547.06
2022-08-23T20:15:56.420Z,100556.56
2022-08-23T20:17:58.193Z,100564.13
2022-08-23T20:19:59.848Z,100565.31
2022-08-23T20:22:01.651Z,100566.50
2022-08-23T20:24:04.373Z,100558.97
2022-08-23T20:26:07.502Z,100573.66
2022-08-23T20:28:11.004Z,100567.38
2022-08-23T20:30:14.286Z,100571.38
2022-08-23T20:32:15.903Z,100578.50
2022-08-23T20:34:17.566Z,100571.44
2022-08-23T20:36:19.667Z,100571.06
2022-08-23T20:38:32.102Z,100574.69
2022-08-23T20:40:35.753Z,100573.13
2022-08-23T20:42:39.114Z,100581.06
2022-08-23T20:44:40.749Z,100573.91
2022-08-23T20:46:43.028Z,100569.16
2022-08-23T20:48:44.866Z,100569.19
2022-08-23T20:50:46.606Z,100571.97
2022-08-23T20:52:48.282Z,100575.91
2022-08-23T20:54:49.877Z,100571.59
2022-08-23T20:56:52.734Z,100576.75
2022-08-23T20:58:56.471Z,100575.53
2022-08-23T21:00:58.608Z,100580.31
2022-08-23T21:03:00.392Z,100577.53
2022-08-23T21:05:02.055Z,100578.72
2022-08-23T21:07:07.925Z,100581.13
2022-08-23T21:09:10.767Z,100578.34
2022-08-23T21:11:12.856Z,100584.28
2022-08-23T21:13:14.497Z,100588.63
2022-08-23T21:15:17.548Z,100579.94
2022-08-23T21:17:19.327Z,100583.50
2022-08-23T21:19:20.959Z,100582.31
2022-08-23T21:21:24.643Z,100585.88
2022-08-23T21:23:26.710Z,100593.81
2022-08-23T21:25:28.379Z,100588.25
2022-08-23T21:27:30.024Z,100590.25
2022-08-23T21:29:31.604Z,100590.25
2022-08-23T21:31:34.980Z,100589.44
2022-08-23T21:33:40.181Z,100584.69
2022-08-23T21:35:42.207Z,100589.06
2022-08-23T21:37:43.925Z,100585.09
2022-08-23T21:39:46.452Z,100589.88
2022-08-23T21:41:48.583Z,100592.63
2022-08-23T21:43:50.550Z,100594.59
2022-08-23T21:45:52.285Z,100594.19
2022-08-23T21:47:55.393Z,100593.78
2022-08-23T21:49:57.258Z,100590.25
2022-08-23T21:51:58.853Z,100593.03
2022-08-23T21:54:00.669Z,100589.06
2022-08-23T21:56:02.423Z,100585.13
2022-08-23T21:58:04.018Z,100589.84
2022-08-23T22:00:08.288Z,100583.91
2022-08-23T22:02:09.953Z,100585.91
2022-08-23T22:04:15.268Z,100589.47
2022-08-23T22:06:17.514Z,100585.88
2022-08-23T22:08:19.163Z,100576.00
2022-08-23T22:10:22.062Z,100579.56
2022-08-23T22:12:25.094Z,100579.97
2022-08-23T22:14:31.254Z,100581.16
2022-08-23T22:16:33.168Z,100579.56
2022-08-23T22:18:35.136Z,100583.13
2022-08-23T22:20:38.180Z,100585.47
2022-08-23T22:22:40.136Z,100588.66
2022-08-23T22:24:41.814Z,100584.69
2022-08-23T22:26:44.520Z,100587.47
2022-08-23T22:28:46.803Z,100586.28
2022-08-23T22:30:48.548Z,100586.66
2022-08-23T22:32:50.149Z,100586.66
2022-08-23T22:34:51.926Z,100583.50
2022-08-23T22:36:54.938Z,100580.72
2022-08-23T22:38:56.706Z,100581.91
2022-08-23T22:40:58.415Z,100580.34
2022-08-23T22:43:00.313Z,100581.47
2022-08-23T22:45:03.103Z,100583.84
2022-08-23T22:47:04.998Z,100581.06
2022-08-23T22:49:07.105Z,100577.13
2022-08-23T22:51:11.539Z,100575.53
2022-08-23T22:53:15.472Z,100578.72
2022-08-23T22:55:17.275Z,100577.50
2022-08-23T22:57:19.045Z,100574.75
2022-08-23T22:59:27.674Z,100579.09
2022-08-23T23:01:47.726Z,100574.38
2022-08-23T23:03:51.443Z,100576.31
2022-08-23T23:05:54.002Z,100579.50
2022-08-23T23:07:55.568Z,100572.78
2022-08-23T23:09:58.619Z,100581.06
2022-08-23T23:12:00.220Z,100581.84
2022-08-23T23:14:02.504Z,100585.81
2022-08-23T23:16:06.976Z,100580.66
2022-08-23T23:18:08.550Z,100575.50
2022-08-23T23:20:11.043Z,100585.78
2022-08-23T23:22:12.649Z,100577.84
2022-08-23T23:24:16.842Z,100585.75
2022-08-23T23:26:19.815Z,100586.56
2022-08-23T23:28:22.007Z,100586.13
2022-08-23T23:30:23.598Z,100588.09
2022-08-23T23:32:25.197Z,100589.66
2022-08-23T23:34:27.344Z,100590.84
2022-08-23T23:36:29.136Z,100586.09
2022-08-23T23:38:30.764Z,100591.22
2022-08-23T23:40:33.037Z,100595.53
2022-08-23T23:42:38.478Z,100594.28
2022-08-23T23:44:40.194Z,100592.75
2022-08-23T23:46:45.310Z,100594.28
2022-08-23T23:48:51.490Z,100594.31